Time;durP1;ratioP1;P1;durP2;ratioP2;P2;SDS_P1;SDS_P2;PMS_P1;PMS_P2;Temp;Humidity;BMP_temperature;BMP_pressure;BME280_temperature;BME280_humidity;BME280_pressure;Samples;Min_cycle;Max_cycle;Signal;HPM_P1;HPM_P2
2024/01/25 00:01:28;;;;;;;5.57;1.40;;;21.00;53.10;;;;;;5073001;28;20178;-72
2024/01/25 00:03:54;;;;;;;1.73;1.20;;;21.00;53.00;;;;;;5072834;28;20668;-72
2024/01/25 00:06:20;;;;;;;1.50;1.20;;;21.00;53.00;;;;;;5072229;28;20255;-72
2024/01/25 00:08:46;;;;;;;1.80;1.03;;;21.00;53.00;;;;;;5072946;28;20519;-72
2024/01/25 00:11:12;;;;;;;1.63;1.00;;;21.00;53.10;;;;;;5072415;28;20518;-72
2024/01/25 00:13:38;;;;;;;1.57;1.47;;;21.00;53.10;;;;;;5072212;28;20166;-72
2024/01/25 00:16:04;;;;;;;1.80;1.07;;;21.00;53.10;;;;;;5072205;28;20257;-72
2024/01/25 00:18:30;;;;;;;1.47;1.07;;;21.00;53.10;;;;;;5072592;28;20397;-72
2024/01/25 00:20:56;;;;;;;1.80;1.30;;;21.00;53.10;;;;;;5072373;28;20463;-70
2024/01/25 00:23:21;;;;;;;1.53;1.07;;;21.00;53.10;;;;;;5071443;28;20913;-71
2024/01/25 00:25:47;;;;;;;1.63;1.07;;;21.00;53.00;;;;;;5072117;28;20175;-72
2024/01/25 00:28:13;;;;;;;1.87;1.10;;;20.90;53.00;;;;;;5072236;28;20185;-72
2024/01/25 00:30:39;;;;;;;2.53;1.20;;;21.00;53.10;;;;;;5072085;28;20201;-72
2024/01/25 00:33:05;;;;;;;1.40;1.13;;;20.90;53.00;;;;;;5072523;28;20253;-72
2024/01/25 00:35:31;;;;;;;1.70;1.20;;;20.90;53.00;;;;;;5071939;28;20491;-73
2024/01/25 00:37:57;;;;;;;1.50;1.00;;;20.90;53.00;;;;;;5072137;28;20198;-72
2024/01/25 00:40:22;;;;;;;1.87;0.97;;;20.90;53.00;;;;;;5072082;28;20428;-72
2024/01/25 00:42:55;;;;;;;1.27;1.10;;;20.90;53.00;;;;;;5071945;28;20174;-72
2024/01/25 00:45:22;;;;;;;1.67;1.10;;;21.00;53.10;;;;;;5072055;28;20162;-71
2024/01/25 00:47:48;;;;;;;1.63;1.10;;;21.00;53.10;;;;;;5071961;28;20405;-72
2024/01/25 00:50:17;;;;;;;1.40;1.00;;;20.90;53.00;;;;;;5072020;28;20439;-72
2024/01/25 00:52:46;;;;;;;1.97;1.30;;;20.90;53.00;;;;;;5071576;28;20460;-72
2024/01/25 00:55:12;;;;;;;1.77;0.90;;;20.90;53.00;;;;;;5072162;28;20493;-72
2024/01/25 00:57:38;;;;;;;2.00;1.10;;;20.90;53.00;;;;;;5072033;28;20408;-72
2024/01/25 01:00:04;;;;;;;1.63;1.10;;;20.90;53.00;;;;;;5071462;28;20447;-72
2024/01/25 01:02:35;;;;;;;1.30;1.00;;;21.00;53.10;;;;;;5037231;28;20933;-72
2024/01/25 01:05:00;;;;;;;2.30;1.33;;;21.00;53.10;;;;;;5071614;28;20503;-71
2024/01/25 01:07:26;;;;;;;2.17;1.40;;;20.90;53.60;;;;;;5071738;28;20615;-72
2024/01/25 01:09:52;;;;;;;1.83;1.00;;;20.90;53.00;;;;;;5036729;28;20198;-72
2024/01/25 01:12:17;;;;;;;2.17;1.07;;;20.90;53.00;;;;;;5071512;28;20695;-73
2024/01/25 01:14:43;;;;;;;1.50;1.10;;;20.90;53.10;;;;;;5072170;28;20536;-72
2024/01/25 01:17:09;;;;;;;2.07;1.00;;;20.90;53.10;;;;;;5053500;28;20194;-72
2024/01/25 01:19:34;;;;;;;1.73;0.90;;;20.90;53.00;;;;;;5071411;28;20198;-72
2024/01/25 01:22:00;;;;;;;1.40;0.90;;;20.90;53.10;;;;;;5052969;28;20265;-72
2024/01/25 01:24:26;;;;;;;2.40;1.33;;;20.90;53.10;;;;;;5071456;28;20189;-72
2024/01/25 01:26:52;;;;;;;1.23;0.87;;;20.90;53.10;;;;;;5071745;28;20173;-72
2024/01/25 01:29:18;;;;;;;1.33;0.93;;;20.90;53.10;;;;;;5036752;28;20205;-72
2024/01/25 01:31:44;;;;;;;2.50;1.13;;;20.90;53.10;;;;;;5071494;28;20553;-72
2024/01/25 01:34:09;;;;;;;2.00;1.10;;;20.90;53.60;;;;;;5020304;28;20414;-72
2024/01/25 01:36:35;;;;;;;1.97;1.47;;;20.90;53.10;;;;;;5074001;28;20773;-72
2024/01/25 01:39:01;;;;;;;2.10;1.20;;;20.90;53.00;;;;;;5057749;28;20261;-72
2024/01/25 01:41:26;;;;;;;1.40;1.00;;;20.90;53.10;;;;;;5058573;28;20185;-72
2024/01/25 01:43:53;;;;;;;1.80;1.13;;;20.90;53.10;;;;;;5077065;28;20179;-71
2024/01/25 01:46:37;;;;;;;1.43;1.00;;;20.90;53.00;;;;;;5076723;28;20245;-72
2024/01/25 01:49:03;;;;;;;1.43;0.90;;;20.90;53.10;;;;;;5058569;28;20441;-71
2024/01/25 01:51:32;;;;;;;1.83;1.13;;;20.90;53.10;;;;;;5058089;28;20460;-72
2024/01/25 01:53:58;;;;;;;2.50;1.23;;;20.90;53.70;;;;;;5076182;28;20551;-71
2024/01/25 01:56:28;;;;;;;1.17;0.90;;;20.90;53.10;;;;;;5041709;28;20510;-70
2024/01/25 01:58:58;;;;;;;1.70;1.10;;;20.90;53.10;;;;;;5076555;28;20411;-71
2024/01/25 02:01:25;;;;;;;1.30;1.00;;;20.90;53.10;;;;;;5076201;28;20551;-70
2024/01/25 02:03:51;;;;;;;2.00;1.27;;;20.90;53.10;;;;;;5058104;28;20428;-71
2024/01/25 02:06:16;;;;;;;1.00;0.90;;;20.90;53.10;;;;;;5076807;28;20416;-71
2024/01/25 02:08:42;;;;;;;2.17;0.90;;;20.90;53.00;;;;;;5057786;28;20182;-71
2024/01/25 02:11:12;;;;;;;1.60;1.50;;;20.90;53.10;;;;;;5075981;28;20636;-72
2024/01/25 02:13:37;;;;;;;1.40;1.00;;;20.90;53.10;;;;;;5076480;28;20412;-70
2024/01/25 02:16:04;;;;;;;2.50;1.00;;;20.90;53.10;;;;;;5075794;28;20442;-71
2024/01/25 02:18:30;;;;;;;1.47;1.03;;;20.90;53.10;;;;;;5058103;28;20220;-71
2024/01/25 02:20:56;;;;;;;1.70;1.00;;;20.90;53.10;;;;;;5075392;28;20464;-71
2024/01/25 02:23:22;;;;;;;1.30;0.90;;;20.80;53.00;;;;;;5057828;28;20448;-71
2024/01/25 02:25:47;;;;;;;2.00;1.10;;;20.90;53.10;;;;;;5057612;28;20269;-71
2024/01/25 02:28:13;;;;;;;1.33;1.00;;;20.90;53.10;;;;;;5075699;28;20709;-71
2024/01/25 02:30:38;;;;;;;1.30;1.00;;;20.80;53.10;;;;;;5057376;28;20212;-71
2024/01/25 02:33:04;;;;;;;1.40;0.90;;;20.80;52.80;;;;;;5040612;28;20209;-71
2024/01/25 02:35:30;;;;;;;0.97;0.80;;;20.80;53.10;;;;;;5057768;28;20174;-72
2024/01/25 02:37:55;;;;;;;1.90;1.20;;;20.80;53.10;;;;;;5075810;28;20175;-71
2024/01/25 02:40:21;;;;;;;1.50;1.00;;;20.80;53.10;;;;;;5075903;28;20646;-71
2024/01/25 02:42:47;;;;;;;1.30;0.90;;;20.80;53.10;;;;;;5057309;28;20178;-71
2024/01/25 02:45:12;;;;;;;1.80;1.20;;;20.80;53.10;;;;;;5075472;28;20642;-71
2024/01/25 02:47:38;;;;;;;1.50;0.90;;;20.80;53.10;;;;;;5074749;28;20538;-72
2024/01/25 02:50:04;;;;;;;1.60;1.03;;;20.80;53.10;;;;;;5075185;28;20216;-71
2024/01/25 02:52:29;;;;;;;2.40;1.23;;;20.80;53.10;;;;;;5057212;28;20292;-71
2024/01/25 02:54:55;;;;;;;1.27;0.90;;;20.80;53.10;;;;;;5056987;28;20950;-71
2024/01/25 02:57:20;;;;;;;1.20;1.10;;;20.80;53.10;;;;;;5075165;28;20190;-72
2024/01/25 02:59:47;;;;;;;1.00;0.80;;;20.80;53.10;;;;;;5057049;28;20244;-73
2024/01/25 03:02:12;;;;;;;2.30;1.10;;;20.80;53.10;;;;;;5076073;28;20186;-73
2024/01/25 03:04:38;;;;;;;1.10;0.87;;;20.80;53.10;;;;;;5040439;28;21159;-73
2024/01/25 03:07:04;;;;;;;1.20;0.90;;;20.80;53.10;;;;;;5075118;28;20204;-72
2024/01/25 03:09:29;;;;;;;1.30;0.73;;;20.80;53.10;;;;;;5074867;28;20205;-72
2024/01/25 03:11:55;;;;;;;1.17;0.80;;;20.80;53.10;;;;;;5074920;28;20452;-73
2024/01/25 03:14:21;;;;;;;1.20;0.80;;;20.80;53.10;;;;;;5074830;28;20580;-72
2024/01/25 03:16:46;;;;;;;1.67;1.10;;;20.80;53.70;;;;;;5075264;28;20182;-72
2024/01/25 03:19:12;;;;;;;1.50;1.00;;;20.80;53.10;;;;;;5074932;28;20183;-72
2024/01/25 03:21:38;;;;;;;4.40;1.00;;;20.80;53.10;;;;;;5074683;28;20245;-72
2024/01/25 03:24:04;;;;;;;1.10;0.80;;;20.80;53.10;;;;;;5056413;28;20189;-72
2024/01/25 03:26:29;;;;;;;1.67;1.00;;;20.80;53.10;;;;;;5074449;28;20667;-71
2024/01/25 03:28:55;;;;;;;1.43;1.00;;;20.80;53.10;;;;;;5074305;28;20423;-71
2024/01/25 03:31:21;;;;;;;1.20;0.80;;;20.80;53.10;;;;;;5056176;28;20210;-72
2024/01/25 03:33:46;;;;;;;1.47;1.10;;;20.80;53.10;;;;;;5056097;28;20507;-71
2024/01/25 03:36:15;;;;;;;1.37;1.00;;;20.80;53.10;;;;;;5056407;28;20178;-71
2024/01/25 03:38:40;;;;;;;1.50;1.00;;;20.80;53.10;;;;;;5074400;28;20253;-71
2024/01/25 03:41:06;;;;;;;1.70;1.03;;;20.80;53.10;;;;;;5074390;28;20527;-71
2024/01/25 03:43:32;;;;;;;1.30;0.93;;;20.80;53.10;;;;;;5074538;28;20651;-71
2024/01/25 03:45:57;;;;;;;1.70;1.23;;;20.80;53.10;;;;;;5056277;28;20208;-71
2024/01/25 03:48:23;;;;;;;2.03;1.00;;;20.80;53.10;;;;;;5074480;28;20183;-70
2024/01/25 03:50:49;;;;;;;1.33;1.00;;;20.80;53.10;;;;;;5055934;28;20276;-71
2024/01/25 03:53:14;;;;;;;1.53;1.00;;;20.80;53.10;;;;;;5038960;28;20296;-71
2024/01/25 03:55:41;;;;;;;1.50;0.93;;;20.80;53.10;;;;;;5073983;28;20169;-71
2024/01/25 03:58:06;;;;;;;1.63;0.90;;;20.80;53.10;;;;;;5022328;28;20184;-71
2024/01/25 04:00:32;;;;;;;1.77;1.10;;;20.80;53.10;;;;;;5055399;28;20948;-71
2024/01/25 04:02:58;;;;;;;1.00;0.80;;;20.80;53.10;;;;;;5055758;28;20178;-71
2024/01/25 04:05:26;;;;;;;1.67;1.17;;;20.80;53.10;;;;;;5038903;28;20185;-68
2024/01/25 04:07:52;;;;;;;1.47;0.90;;;20.80;53.10;;;;;;5055387;28;20416;-71
2024/01/25 04:10:17;;;;;;;1.47;1.00;;;20.70;53.10;;;;;;5055359;28;20910;-71
2024/01/25 04:12:43;;;;;;;1.10;0.80;;;20.70;53.10;;;;;;5055464;28;20201;-71
2024/01/25 04:15:09;;;;;;;1.50;1.20;;;20.70;53.10;;;;;;5038692;28;20181;-71
2024/01/25 04:17:35;;;;;;;2.60;0.90;;;20.80;53.10;;;;;;5073236;28;20281;-72
2024/01/25 04:20:00;;;;;;;1.47;1.20;;;20.70;53.10;;;;;;5055434;28;20499;-71
2024/01/25 04:22:26;;;;;;;1.23;0.73;;;20.70;53.10;;;;;;5038909;28;20212;-71
2024/01/25 04:24:52;;;;;;;1.00;0.90;;;20.70;53.10;;;;;;5038903;28;20177;-71
2024/01/25 04:27:17;;;;;;;0.97;0.77;;;20.70;53.40;;;;;;5055193;28;20179;-71
2024/01/25 04:29:43;;;;;;;2.43;1.03;;;20.70;53.10;;;;;;5073142;28;20523;-71
2024/01/25 04:32:09;;;;;;;1.40;0.90;;;20.70;53.10;;;;;;5073390;28;20212;-72
2024/01/25 04:34:35;;;;;;;1.50;0.97;;;20.70;53.10;;;;;;5055544;28;20166;-71
2024/01/25 04:37:01;;;;;;;1.83;0.83;;;20.70;53.10;;;;;;5054836;28;20170;-72
2024/01/25 04:39:27;;;;;;;1.40;0.87;;;20.70;53.10;;;;;;5073530;28;20436;-72
2024/01/25 04:41:52;;;;;;;1.70;0.93;;;20.70;53.10;;;;;;5073475;28;20185;-72
2024/01/25 04:44:18;;;;;;;1.53;0.97;;;20.70;53.10;;;;;;5073699;28;20228;-72
2024/01/25 04:46:43;;;;;;;1.63;1.10;;;20.70;53.10;;;;;;5073039;28;20180;-72
2024/01/25 04:49:09;;;;;;;1.20;0.80;;;20.80;53.10;;;;;;5054939;28;20184;-71
2024/01/25 04:51:35;;;;;;;2.20;0.90;;;20.70;53.10;;;;;;5072856;28;20558;-72
2024/01/25 04:54:00;;;;;;;1.47;0.90;;;20.70;53.10;;;;;;5054670;28;20166;-72
2024/01/25 04:56:26;;;;;;;1.40;1.10;;;20.70;53.60;;;;;;5073014;28;20203;-72
2024/01/25 04:58:52;;;;;;;1.23;0.90;;;20.70;53.10;;;;;;5073025;28;20308;-72
2024/01/25 05:01:18;;;;;;;1.27;0.97;;;20.80;53.20;;;;;;5072659;28;20677;-72
2024/01/25 05:03:43;;;;;;;1.10;0.80;;;20.70;53.10;;;;;;5054425;28;20174;-72
2024/01/25 05:06:09;;;;;;;1.33;1.00;;;20.80;53.10;;;;;;5054258;28;20170;-71
2024/01/25 05:08:34;;;;;;;2.10;1.03;;;20.70;53.10;;;;;;5054575;28;20546;-71
2024/01/25 05:11:00;;;;;;;2.10;1.27;;;20.70;53.10;;;;;;5072682;28;20696;-71
2024/01/25 05:13:26;;;;;;;1.20;0.80;;;20.70;53.10;;;;;;5073418;28;20166;-72
2024/01/25 05:15:51;;;;;;;1.43;1.00;;;20.70;53.10;;;;;;5072312;28;20170;-71
2024/01/25 05:18:17;;;;;;;1.83;0.97;;;20.80;53.20;;;;;;5021419;28;20163;-72
2024/01/25 05:20:43;;;;;;;1.43;0.90;;;20.80;53.20;;;;;;5072755;28;20645;-72
2024/01/25 05:23:08;;;;;;;1.47;0.90;;;20.70;53.10;;;;;;5038077;28;20176;-71
2024/01/25 05:25:34;;;;;;;1.00;0.80;;;20.80;53.20;;;;;;5058788;28;20570;-72
2024/01/25 05:28:00;;;;;;;1.70;1.03;;;20.80;53.20;;;;;;5074107;28;20252;-72
2024/01/25 05:30:27;;;;;;;1.90;0.90;;;20.80;53.20;;;;;;5073872;28;20625;-72
2024/01/25 05:32:54;;;;;;;1.30;1.00;;;20.70;53.10;;;;;;5074062;28;20861;-72
2024/01/25 05:35:19;;;;;;;1.37;0.97;;;20.80;53.20;;;;;;5091902;28;20494;-72
2024/01/25 05:37:45;;;;;;;1.40;0.97;;;20.80;53.20;;;;;;5091628;28;20490;-72
2024/01/25 05:40:11;;;;;;;1.73;1.00;;;20.80;53.20;;;;;;5074423;28;20231;-71
2024/01/25 05:42:38;;;;;;;2.23;1.30;;;20.80;53.20;;;;;;5093045;28;20200;-72
2024/01/25 05:45:03;;;;;;;1.47;0.90;;;20.80;53.20;;;;;;5093214;28;20514;-72
2024/01/25 05:47:30;;;;;;;1.23;0.90;;;20.80;53.20;;;;;;5092399;28;20490;-71
2024/01/25 05:49:56;;;;;;;1.97;0.90;;;20.80;53.20;;;;;;5092956;28;20194;-71
2024/01/25 05:52:23;;;;;;;1.30;0.80;;;20.80;53.20;;;;;;5074222;28;20524;-72
2024/01/25 05:54:52;;;;;;;1.30;0.90;;;20.80;53.20;;;;;;5074418;28;20408;-71
2024/01/25 05:57:18;;;;;;;1.40;0.80;;;20.80;53.20;;;;;;5074241;28;20455;-71
2024/01/25 05:59:44;;;;;;;1.77;1.00;;;20.80;53.20;;;;;;5074556;28;20780;-72
2024/01/25 06:02:10;;;;;;;2.10;0.83;;;20.80;53.20;;;;;;5074817;28;20428;-72
2024/01/25 06:04:35;;;;;;;1.20;1.00;;;20.80;53.20;;;;;;5092862;28;20173;-72
2024/01/25 06:07:01;;;;;;;1.80;1.10;;;20.80;53.20;;;;;;5074840;28;20166;-72
2024/01/25 06:09:27;;;;;;;1.27;0.90;;;20.80;53.20;;;;;;5093711;28;20201;-72
2024/01/25 06:11:53;;;;;;;1.80;1.07;;;20.80;53.20;;;;;;5093879;28;20284;-72
2024/01/25 06:14:18;;;;;;;1.77;0.97;;;20.80;53.20;;;;;;5074509;28;20518;-72
2024/01/25 06:16:44;;;;;;;1.70;1.10;;;20.80;53.10;;;;;;5093898;28;20186;-72
2024/01/25 06:19:10;;;;;;;1.70;1.23;;;20.80;53.10;;;;;;5093028;28;20170;-72
2024/01/25 06:21:37;;;;;;;1.97;1.20;;;20.80;53.10;;;;;;5075819;28;20418;-72
2024/01/25 06:24:05;;;;;;;1.87;1.00;;;20.80;53.10;;;;;;5096901;28;21080;-71
2024/01/25 06:26:31;;;;;;;1.73;0.90;;;20.80;53.10;;;;;;5078084;28;20408;-72
2024/01/25 06:28:57;;;;;;;2.30;0.93;;;20.90;53.20;;;;;;5097020;28;20416;-72
2024/01/25 06:31:26;;;;;;;1.33;0.97;;;20.90;53.10;;;;;;5096119;28;20672;-72
2024/01/25 06:33:52;;;;;;;1.23;1.10;;;20.90;53.10;;;;;;5077849;28;20415;-72
2024/01/25 06:36:21;;;;;;;1.80;1.30;;;20.90;53.10;;;;;;5095739;28;20415;-72
2024/01/25 06:38:47;;;;;;;1.70;1.20;;;20.90;53.10;;;;;;5078637;28;20437;-72
2024/01/25 06:41:13;;;;;;;2.50;1.40;;;20.90;53.10;;;;;;5096129;28;20455;-72
2024/01/25 06:43:40;;;;;;;1.50;1.20;;;20.90;53.10;;;;;;5095965;28;20442;-71
2024/01/25 06:46:08;;;;;;;1.93;1.50;;;20.90;53.10;;;;;;5095885;28;20473;-71
2024/01/25 06:48:34;;;;;;;1.77;1.33;;;20.90;53.10;;;;;;5061498;28;20467;-72
2024/01/25 06:51:02;;;;;;;4.60;1.93;;;20.90;53.10;;;;;;5061065;28;20460;-72
2024/01/25 06:53:28;;;;;;;1.90;1.53;;;20.90;53.10;;;;;;5095943;28;20166;-72
2024/01/25 06:55:54;;;;;;;2.10;1.40;;;21.00;53.10;;;;;;5096195;28;20403;-72
2024/01/25 06:58:19;;;;;;;3.77;1.87;;;21.00;53.20;;;;;;5077086;28;20168;-72
2024/01/25 07:00:46;;;;;;;2.77;2.57;;;21.00;53.10;;;;;;5076755;28;20648;-72
2024/01/25 07:03:12;;;;;;;2.90;1.50;;;21.00;53.10;;;;;;5077206;28;20174;-72
2024/01/25 07:05:38;;;;;;;2.13;1.60;;;21.00;53.10;;;;;;5077410;28;20434;-71
2024/01/25 07:08:04;;;;;;;2.60;2.10;;;21.00;53.10;;;;;;5060259;28;20412;-72
2024/01/25 07:10:31;;;;;;;2.90;2.00;;;21.00;53.10;;;;;;5076629;28;20190;-72
2024/01/25 07:12:57;;;;;;;2.17;1.60;;;21.00;53.10;;;;;;5094618;28;20455;-72
2024/01/25 07:15:22;;;;;;;2.90;1.77;;;21.00;53.10;;;;;;5094970;28;20665;-71
2024/01/25 07:17:48;;;;;;;3.60;2.00;;;21.00;53.10;;;;;;5094676;28;20563;-72
2024/01/25 07:20:14;;;;;;;2.13;1.50;;;21.00;53.10;;;;;;5094992;28;20225;-72
2024/01/25 07:22:40;;;;;;;2.80;1.87;;;21.10;53.20;;;;;;5076622;28;20182;-71
2024/01/25 07:25:06;;;;;;;3.53;1.90;;;21.10;53.20;;;;;;5094769;28;20169;-72
2024/01/25 07:27:31;;;;;;;3.67;1.80;;;21.10;53.20;;;;;;5095038;28;20939;-72
2024/01/25 07:29:57;;;;;;;2.13;1.57;;;21.10;53.10;;;;;;5094683;28;20487;-71
2024/01/25 07:32:25;;;;;;;2.37;1.80;;;21.10;53.10;;;;;;5094042;28;20296;-72
2024/01/25 07:34:51;;;;;;;6.33;2.50;;;21.10;53.20;;;;;;5094008;28;20170;-71
2024/01/25 07:37:18;;;;;;;2.70;1.90;;;21.10;53.10;;;;;;5094829;28;20403;-71
2024/01/25 07:39:44;;;;;;;2.50;1.90;;;21.10;53.20;;;;;;5094632;28;20652;-71
2024/01/25 07:42:10;;;;;;;2.37;1.80;;;21.10;53.20;;;;;;5094607;28;20487;-72
2024/01/25 07:44:35;;;;;;;2.83;1.93;;;21.10;53.20;;;;;;5076132;28;20177;-71
2024/01/25 07:47:02;;;;;;;2.43;1.83;;;21.10;53.10;;;;;;5093965;28;20659;-71
2024/01/25 07:49:27;;;;;;;2.27;1.73;;;21.10;53.10;;;;;;5094322;28;20196;-72
2024/01/25 07:51:53;;;;;;;2.70;1.77;;;21.10;53.10;;;;;;5094059;28;20447;-72
2024/01/25 07:54:18;;;;;;;2.60;1.87;;;21.10;53.10;;;;;;5094664;28;20637;-71
2024/01/25 07:56:44;;;;;;;3.83;2.03;;;21.10;53.10;;;;;;5094221;28;20166;-71
2024/01/25 07:59:09;;;;;;;2.37;1.90;;;21.10;53.10;;;;;;5093569;28;20616;-71
2024/01/25 08:01:35;;;;;;;3.70;1.77;;;21.10;53.20;;;;;;5093889;28;20180;-70
2024/01/25 08:04:03;;;;;;;3.57;1.87;;;21.10;53.20;;;;;;5094496;28;20174;-71
2024/01/25 08:06:28;;;;;;;3.40;1.80;;;21.10;53.20;;;;;;5093692;28;20165;-71
2024/01/25 08:08:54;;;;;;;3.00;1.83;;;21.10;53.20;;;;;;5093863;28;20439;-71
2024/01/25 08:11:20;;;;;;;2.90;1.87;;;21.10;53.20;;;;;;5093385;28;20596;-71
2024/01/25 08:13:47;;;;;;;2.40;1.73;;;21.20;53.30;;;;;;5093281;28;20177;-72
2024/01/25 08:16:20;;;;;;;3.80;1.93;;;21.20;53.30;;;;;;5093512;28;20432;-72
2024/01/25 08:18:47;;;;;;;2.57;1.70;;;21.20;53.30;;;;;;5093723;28;20423;-72
2024/01/25 08:21:13;;;;;;;1.70;1.53;;;21.20;53.30;;;;;;5093141;28;20952;-71
2024/01/25 08:23:39;;;;;;;1.93;1.53;;;21.20;53.30;;;;;;5093665;28;20411;-72
2024/01/25 08:26:09;;;;;;;4.43;2.27;;;21.20;53.20;;;;;;5093041;28;20780;-71
2024/01/25 08:28:36;;;;;;;2.90;1.70;;;21.20;53.20;;;;;;5092842;28;20414;-72
2024/01/25 08:31:02;;;;;;;2.77;1.83;;;21.20;53.20;;;;;;5075348;28;20510;-72
2024/01/25 08:33:27;;;;;;;3.70;2.00;;;21.20;53.20;;;;;;5093288;28;20788;-72
2024/01/25 08:35:53;;;;;;;5.20;2.00;;;21.20;53.20;;;;;;5075164;28;20414;-71
2024/01/25 08:38:19;;;;;;;2.50;1.83;;;21.20;53.20;;;;;;5093196;28;20177;-71
2024/01/25 08:40:44;;;;;;;2.80;1.90;;;21.20;53.20;;;;;;5075124;28;20192;-71
2024/01/25 08:43:10;;;;;;;2.33;1.80;;;21.20;53.20;;;;;;5074671;28;20174;-71
2024/01/25 08:45:36;;;;;;;3.00;2.10;;;21.20;53.20;;;;;;5093135;28;20170;-71
2024/01/25 08:48:02;;;;;;;2.53;2.07;;;21.20;53.20;;;;;;5092831;28;20530;-71
2024/01/25 08:50:28;;;;;;;3.40;1.70;;;21.20;53.20;;;;;;5074643;28;20489;-72
2024/01/25 08:52:54;;;;;;;1.93;1.70;;;21.20;53.20;;;;;;5092581;28;20201;-71
2024/01/25 08:55:19;;;;;;;2.00;1.50;;;21.20;53.20;;;;;;5092613;28;20546;-71
2024/01/25 08:57:45;;;;;;;4.50;2.10;;;21.20;53.20;;;;;;5093373;28;20270;-71
2024/01/25 09:00:10;;;;;;;2.03;1.53;;;21.20;53.20;;;;;;5092687;28;20200;-71
2024/01/25 09:02:37;;;;;;;2.40;1.93;;;21.20;53.20;;;;;;5092808;28;20174;-72
2024/01/25 09:05:04;;;;;;;2.47;1.67;;;21.20;53.20;;;;;;5093055;28;20247;-70
2024/01/25 09:07:30;;;;;;;5.20;1.83;;;21.20;53.20;;;;;;5092907;28;20431;-71
2024/01/25 09:09:55;;;;;;;4.30;1.80;;;21.20;53.20;;;;;;5092748;28;20952;-71
2024/01/25 09:12:21;;;;;;;2.27;1.60;;;21.20;53.20;;;;;;5092267;28;20212;-70
2024/01/25 09:14:46;;;;;;;2.47;1.67;;;21.20;53.20;;;;;;5092575;28;20521;-72
2024/01/25 09:17:13;;;;;;;4.53;2.00;;;21.20;53.20;;;;;;5092553;28;20265;-72
2024/01/25 09:19:39;;;;;;;5.37;1.80;;;21.20;53.20;;;;;;5092313;28;20189;-71
2024/01/25 09:22:07;;;;;;;3.80;2.10;;;21.20;53.20;;;;;;5092190;28;20400;-72
2024/01/25 09:24:35;;;;;;;3.30;2.00;;;21.20;53.20;;;;;;5092486;28;20184;-72
2024/01/25 09:27:02;;;;;;;2.67;1.97;;;21.20;53.30;;;;;;5092715;28;20926;-71
2024/01/25 09:29:28;;;;;;;3.13;2.03;;;21.20;53.30;;;;;;5092847;28;20462;-72
2024/01/25 09:31:54;;;;;;;2.40;1.90;;;21.20;53.80;;;;;;5092083;28;20462;-71
2024/01/25 09:34:21;;;;;;;4.40;2.07;;;21.20;53.30;;;;;;5092496;28;20416;-71
2024/01/25 09:36:46;;;;;;;4.90;2.93;;;21.20;53.30;;;;;;5093032;28;20188;-71
2024/01/25 09:39:14;;;;;;;4.30;2.37;;;21.20;53.30;;;;;;5092379;28;20408;-71
2024/01/25 09:41:39;;;;;;;3.07;2.27;;;21.20;53.20;;;;;;5074357;28;20293;-71
2024/01/25 09:44:08;;;;;;;2.50;1.93;;;21.20;53.20;;;;;;5092365;28;20954;-72
2024/01/25 09:46:34;;;;;;;2.33;1.70;;;21.20;53.20;;;;;;5092452;28;20272;-71
2024/01/25 09:49:00;;;;;;;2.63;1.90;;;21.20;53.20;;;;;;5092940;28;20419;-72
2024/01/25 09:51:27;;;;;;;3.10;2.10;;;21.20;53.30;;;;;;5074124;28;20456;-71
2024/01/25 09:53:55;;;;;;;2.70;1.87;;;21.20;53.30;;;;;;5092314;28;20411;-72
2024/01/25 09:56:22;;;;;;;2.27;1.93;;;21.20;53.20;;;;;;5092896;28;20396;-72
2024/01/25 09:58:50;;;;;;;3.80;2.03;;;21.20;53.30;;;;;;5096570;28;20870;-71
2024/01/25 10:01:16;;;;;;;6.87;2.53;;;21.20;53.30;;;;;;5096324;28;20427;-72
2024/01/25 10:03:45;;;;;;;2.83;2.00;;;21.30;53.30;;;;;;5096040;28;20419;-72
2024/01/25 10:06:12;;;;;;;5.47;2.90;;;21.30;53.30;;;;;;5095995;28;20406;-71
2024/01/25 10:08:38;;;;;;;3.67;2.50;;;21.30;53.40;;;;;;5096040;28;20784;-71
2024/01/25 10:11:04;;;;;;;2.30;2.00;;;21.30;53.90;;;;;;5095902;28;20480;-72
2024/01/25 10:13:30;;;;;;;3.40;2.33;;;21.30;53.40;;;;;;5096241;28;20410;-72
2024/01/25 10:15:56;;;;;;;4.20;2.47;;;21.30;53.40;;;;;;5096151;28;20404;-72
2024/01/25 10:18:23;;;;;;;3.13;2.20;;;21.30;53.40;;;;;;5077516;28;20178;-72
2024/01/25 10:20:49;;;;;;;4.03;2.20;;;21.30;53.40;;;;;;5095905;28;20419;-71
2024/01/25 10:23:14;;;;;;;3.17;1.90;;;21.30;53.40;;;;;;5095550;28;20400;-72
2024/01/25 10:25:41;;;;;;;3.13;2.10;;;21.30;53.30;;;;;;5096286;28;20233;-72
2024/01/25 10:28:07;;;;;;;4.60;2.33;;;21.30;53.40;;;;;;5095820;28;20443;-71
2024/01/25 10:30:35;;;;;;;2.63;1.93;;;21.30;53.40;;;;;;5095166;28;20221;-72
2024/01/25 10:33:04;;;;;;;3.27;2.00;;;21.30;53.40;;;;;;5096186;28;20451;-71
2024/01/25 10:35:31;;;;;;;4.53;2.10;;;21.30;53.40;;;;;;5095692;28;20419;-71
2024/01/25 10:37:57;;;;;;;4.73;2.00;;;21.30;53.40;;;;;;5095825;28;20445;-71
2024/01/25 10:40:22;;;;;;;5.07;2.33;;;21.30;53.30;;;;;;5096423;28;20432;-73
2024/01/25 10:42:49;;;;;;;3.00;2.63;;;21.30;53.40;;;;;;5096123;28;20177;-72
2024/01/25 10:45:15;;;;;;;6.20;2.00;;;21.30;53.40;;;;;;5095959;28;20855;-71
2024/01/25 10:47:41;;;;;;;4.40;2.13;;;21.30;53.40;;;;;;5095543;28;20418;-72
2024/01/25 10:50:13;;;;;;;5.27;2.50;;;21.30;53.40;;;;;;5095308;28;20209;-71
2024/01/25 10:52:41;;;;;;;7.10;2.83;;;21.30;53.40;;;;;;5095287;28;20997;-72
2024/01/25 10:55:08;;;;;;;5.17;2.27;;;21.30;53.40;;;;;;5095409;28;21113;-72
2024/01/25 10:57:44;;;;;;;2.23;1.60;;;21.30;53.40;;;;;;5095237;28;20419;-71
2024/01/25 11:00:12;;;;;;;4.47;2.40;;;21.30;53.40;;;;;;5095404;28;20431;-72
2024/01/25 11:02:39;;;;;;;4.13;2.63;;;21.30;53.40;;;;;;5095600;28;20419;-72
2024/01/25 11:05:15;;;;;;;2.67;1.60;;;21.30;53.40;;;;;;5095324;28;20403;-71
2024/01/25 11:07:48;;;;;;;3.40;2.13;;;21.30;53.40;;;;;;5095378;28;20948;-71
2024/01/25 11:10:22;;;;;;;3.20;1.90;;;21.30;53.40;;;;;;5094704;28;20454;-71
2024/01/25 11:13:00;;;;;;;4.50;2.50;;;21.30;53.40;;;;;;5095067;28;20473;-71
2024/01/25 11:15:32;;;;;;;4.70;2.60;;;21.30;53.40;;;;;;5095049;28;20395;-72
2024/01/25 11:17:59;;;;;;;3.03;1.90;;;21.30;53.50;;;;;;5094771;28;20467;-72
2024/01/25 11:20:28;;;;;;;2.60;2.17;;;21.30;53.50;;;;;;5095317;28;20799;-72
2024/01/25 11:22:57;;;;;;;3.50;2.20;;;21.30;53.50;;;;;;5094517;28;20419;-72
2024/01/25 11:25:26;;;;;;;4.40;2.00;;;21.30;53.50;;;;;;5076488;28;20420;-72
2024/01/25 11:27:52;;;;;;;3.30;2.03;;;21.30;53.50;;;;;;5076323;28;20424;-70
2024/01/25 11:30:19;;;;;;;3.40;2.23;;;21.30;53.50;;;;;;5094562;28;20447;-72
2024/01/25 11:32:47;;;;;;;3.20;1.90;;;21.30;53.50;;;;;;5094680;28;20233;-71
2024/01/25 11:35:16;;;;;;;3.43;1.80;;;21.30;53.50;;;;;;5095043;28;20435;-71
2024/01/25 11:37:45;;;;;;;5.53;2.60;;;21.30;53.50;;;;;;5094891;28;20499;-72
2024/01/25 11:40:12;;;;;;;3.20;2.20;;;21.30;53.50;;;;;;5094453;28;20435;-72
2024/01/25 11:42:39;;;;;;;4.63;2.60;;;21.30;53.50;;;;;;5094944;28;20416;-72
2024/01/25 11:45:08;;;;;;;3.63;2.20;;;21.30;53.50;;;;;;5094578;28;20404;-72
2024/01/25 11:47:34;;;;;;;3.73;1.90;;;21.30;53.60;;;;;;5094633;28;20992;-71
2024/01/25 11:49:59;;;;;;;3.67;1.90;;;21.30;53.60;;;;;;5094446;28;20443;-71
2024/01/25 11:52:26;;;;;;;3.10;2.23;;;21.30;53.60;;;;;;5094528;28;20961;-71
2024/01/25 11:54:51;;;;;;;4.77;2.00;;;21.30;53.60;;;;;;5094412;28;20640;-71
2024/01/25 11:57:18;;;;;;;3.53;2.20;;;21.30;53.60;;;;;;5076410;28;20423;-71
2024/01/25 11:59:45;;;;;;;3.57;2.60;;;21.30;53.60;;;;;;5093957;28;20212;-72
2024/01/25 12:02:15;;;;;;;5.00;2.77;;;21.30;53.60;;;;;;5094131;28;20437;-71
2024/01/25 12:04:40;;;;;;;6.57;3.40;;;21.30;53.50;;;;;;5094428;28;20510;-70
2024/01/25 12:07:07;;;;;;;8.43;4.10;;;21.30;53.50;;;;;;5094460;28;20454;-71
2024/01/25 12:09:33;;;;;;;10.57;5.00;;;21.30;53.50;;;;;;5093883;28;20205;-71
2024/01/25 12:12:00;;;;;;;13.40;5.80;;;21.30;53.50;;;;;;5094122;28;20454;-72
2024/01/25 12:14:27;;;;;;;10.37;5.90;;;21.30;53.50;;;;;;5094525;28;20922;-72
2024/01/25 12:16:55;;;;;;;10.90;5.33;;;21.30;53.50;;;;;;5093703;28;20467;-70
2024/01/25 12:19:21;;;;;;;18.90;6.53;;;21.30;53.50;;;;;;5092529;28;20902;-70
2024/01/25 12:21:47;;;;;;;14.43;7.80;;;21.30;53.50;;;;;;5093394;28;20561;-70
2024/01/25 12:24:13;;;;;;;16.97;8.43;;;21.30;53.50;;;;;;5074629;28;20193;-70
2024/01/25 12:26:38;;;;;;;21.03;10.10;;;21.30;53.50;;;;;;5092589;28;20202;-70
2024/01/25 12:29:04;;;;;;;21.63;11.30;;;21.30;53.50;;;;;;5092693;28;20184;-70
2024/01/25 12:31:30;;;;;;;21.27;11.40;;;21.30;53.50;;;;;;5092250;28;20307;-69
2024/01/25 12:33:57;;;;;;;23.00;13.97;;;21.30;53.50;;;;;;5073941;28;20499;-71
2024/01/25 12:36:23;;;;;;;26.10;13.80;;;21.30;53.50;;;;;;5092366;28;20770;-71
2024/01/25 12:38:48;;;;;;;28.77;15.40;;;21.30;53.50;;;;;;5092757;28;20420;-70
2024/01/25 12:41:14;;;;;;;27.60;17.50;;;21.30;53.50;;;;;;5092212;28;20665;-71